Time;durP1;ratioP1;P1;durP2;ratioP2;P2;SDS_P1;SDS_P2;PMS_P1;PMS_P2;Temp;Humidity;BMP_temperature;BMP_pressure;BME280_temperature;BME280_humidity;BME280_pressure;Samples;Min_cycle;Max_cycle;Signal;HPM_P1;HPM_P2
2023/08/17 00:02:50;;;;;;;10.10;9.20;;;;;;;23.78;71.95;100442.25;131045;1251;107691;-75
2023/08/17 00:05:56;;;;;;;9.60;8.70;;;;;;;23.75;72.08;100438.69;130968;1251;106826;-75
2023/08/17 00:09:03;;;;;;;10.10;9.10;;;;;;;23.69;72.32;100437.31;130958;1256;108563;-77
2023/08/17 00:12:09;;;;;;;10.50;9.50;;;;;;;23.69;72.59;100437.98;131059;1254;106544;-75
2023/08/17 00:15:15;;;;;;;11.10;10.00;;;;;;;23.71;72.70;100437.95;130983;1251;106829;-76
2023/08/17 00:18:20;;;;;;;12.20;10.00;;;;;;;23.72;72.77;100437.52;131058;1254;107730;-76
2023/08/17 00:21:26;;;;;;;10.70;9.70;;;;;;;23.68;72.70;100440.76;130954;1257;107744;-76
2023/08/17 00:24:31;;;;;;;12.00;9.70;;;;;;;23.61;73.09;100443.08;130986;1251;106721;-75
2023/08/17 00:27:37;;;;;;;9.80;8.90;;;;;;;23.50;73.15;100436.83;130930;1255;107645;-75
2023/08/17 00:30:43;;;;;;;11.50;10.00;;;;;;;23.45;73.68;100444.16;130917;1251;106888;-76
2023/08/17 00:33:48;;;;;;;11.60;9.60;;;;;;;23.46;73.80;100441.47;130959;1254;109328;-75
2023/08/17 00:36:54;;;;;;;11.90;10.40;;;;;;;23.48;73.74;100446.91;130954;1253;108451;-76
2023/08/17 00:39:59;;;;;;;11.50;10.30;;;;;;;23.50;74.01;100447.35;130950;1254;106551;-77
2023/08/17 00:43:06;;;;;;;15.50;13.90;;;;;;;23.49;73.99;100450.50;130884;1256;108215;-76
2023/08/17 00:46:12;;;;;;;15.50;13.90;;;;;;;23.47;74.21;100452.17;130930;1255;106825;-76
2023/08/17 00:49:18;;;;;;;14.90;13.50;;;;;;;23.46;74.32;100452.90;130807;1251;226659;-77
2023/08/17 00:52:24;;;;;;;14.20;12.80;;;;;;;23.43;74.41;100457.72;130981;1251;107683;-78
2023/08/17 00:55:29;;;;;;;13.00;11.80;;;;;;;23.35;74.48;100458.34;130931;1256;107461;-77
2023/08/17 00:58:35;;;;;;;13.60;11.90;;;;;;;23.25;74.38;100457.95;131000;1260;108708;-77
2023/08/17 01:01:41;;;;;;;10.60;9.60;;;;;;;23.20;74.58;100455.22;130844;1250;108694;-76
2023/08/17 01:04:47;;;;;;;12.80;10.30;;;;;;;23.22;74.86;100453.80;130780;1258;107079;-76
2023/08/17 01:07:52;;;;;;;12.00;10.80;;;;;;;23.21;74.96;100448.34;131007;1256;106759;-75
2023/08/17 01:11:06;;;;;;;11.60;10.40;;;;;;;23.22;75.01;100439.36;130932;1256;107812;-75
2023/08/17 01:14:19;;;;;;;11.50;10.40;;;;;;;23.16;75.15;100436.77;130986;1254;107752;-75
2023/08/17 01:17:30;;;;;;;11.70;10.20;;;;;;;23.17;75.09;100437.93;131020;1256;106189;-75
2023/08/17 01:20:37;;;;;;;11.20;10.00;;;;;;;23.22;75.02;100433.02;130979;1256;107661;-75
2023/08/17 01:23:45;;;;;;;9.70;8.70;;;;;;;23.24;75.35;100428.60;131006;1254;107900;-75
2023/08/17 01:26:50;;;;;;;11.30;10.20;;;;;;;23.25;75.44;100422.30;130987;1256;108358;-75
2023/08/17 01:29:56;;;;;;;11.20;10.10;;;;;;;23.26;75.39;100422.29;130997;1257;106495;-75
2023/08/17 01:33:08;;;;;;;12.20;10.20;;;;;;;23.28;75.49;100419.12;130844;1257;107170;-75
2023/08/17 01:36:21;;;;;;;11.90;10.80;;;;;;;23.27;75.52;100420.85;130995;1254;107588;-78
2023/08/17 01:39:35;;;;;;;10.70;9.60;;;;;;;23.28;75.59;100424.07;130985;1257;106925;-75
2023/08/17 01:42:42;;;;;;;10.50;9.40;;;;;;;23.27;75.51;100433.92;130945;1256;106661;-77
2023/08/17 01:45:48;;;;;;;12.30;9.40;;;;;;;23.27;75.75;100434.23;131003;1251;107436;-77
2023/08/17 01:48:55;;;;;;;11.60;10.40;;;;;;;23.23;75.73;100432.06;130942;1257;107773;-77
2023/08/17 01:52:02;;;;;;;12.50;11.20;;;;;;;23.09;76.02;100430.84;131039;1256;106779;-77
2023/08/17 01:55:09;;;;;;;11.70;10.70;;;;;;;22.96;76.34;100426.42;130919;1261;106464;-77
2023/08/17 01:58:15;;;;;;;11.50;10.40;;;;;;;22.94;76.50;100426.52;130778;1253;108926;-78
2023/08/17 02:01:21;;;;;;;11.30;9.40;;;;;;;22.94;76.47;100432.14;131030;1256;106629;-77
2023/08/17 02:04:26;;;;;;;12.30;10.60;;;;;;;22.91;76.66;100435.20;130999;1250;107045;-77
2023/08/17 02:07:32;;;;;;;11.70;10.60;;;;;;;22.84;76.88;100429.02;130960;1258;107662;-76
2023/08/17 02:10:37;;;;;;;12.50;11.20;;;;;;;22.81;76.96;100425.35;130994;1255;107170;-75
2023/08/17 02:13:43;;;;;;;12.30;10.90;;;;;;;22.80;77.20;100417.48;130995;1256;108599;-75
2023/08/17 02:16:49;;;;;;;11.30;10.30;;;;;;;22.71;77.21;100415.29;130963;1256;107166;-76
2023/08/17 02:19:55;;;;;;;11.20;10.00;;;;;;;22.73;77.30;100409.70;131011;1256;107587;-76
2023/08/17 02:23:00;;;;;;;11.40;10.20;;;;;;;22.81;77.23;100408.96;131044;1254;108616;-76
2023/08/17 02:26:06;;;;;;;11.40;10.30;;;;;;;22.85;77.26;100408.86;131063;1254;108137;-76
2023/08/17 02:29:11;;;;;;;11.00;9.90;;;;;;;22.91;77.23;100423.52;131055;1256;107753;-75
2023/08/17 02:32:17;;;;;;;10.10;9.20;;;;;;;23.06;76.98;100439.95;131351;1255;107713;-80
2023/08/17 02:35:22;;;;;;;10.40;9.30;;;;;;;23.14;76.85;100439.59;131089;1254;107837;-79
2023/08/17 02:38:28;;;;;;;11.90;10.60;;;;;;;23.15;76.77;100427.23;130999;1257;108728;-79
2023/08/17 02:41:34;;;;;;;11.50;10.40;;;;;;;23.19;76.79;100425.92;131197;1251;108584;-77
2023/08/17 02:44:39;;;;;;;11.50;10.30;;;;;;;23.23;76.83;100429.49;131161;1256;108890;-76
2023/08/17 02:47:45;;;;;;;11.70;10.60;;;;;;;23.23;76.75;100435.91;130999;1259;107479;-76
2023/08/17 02:50:51;;;;;;;10.80;9.70;;;;;;;23.12;76.90;100437.61;131015;1255;106590;-76
2023/08/17 02:53:56;;;;;;;10.60;9.60;;;;;;;23.14;77.10;100441.95;131041;1256;108561;-75
2023/08/17 02:57:02;;;;;;;10.50;9.50;;;;;;;23.16;76.99;100443.96;130971;1257;107576;-76
2023/08/17 03:00:10;;;;;;;10.90;9.80;;;;;;;23.19;77.12;100446.48;131021;1255;106525;-76
2023/08/17 03:03:16;;;;;;;10.70;9.70;;;;;;;23.21;77.10;100447.24;131045;1255;108598;-79
2023/08/17 03:06:22;;;;;;;11.60;10.50;;;;;;;23.22;76.97;100451.25;131017;1258;108763;-76
2023/08/17 03:09:27;;;;;;;11.80;10.60;;;;;;;23.22;76.91;100449.66;130948;1254;106860;-76
2023/08/17 03:12:33;;;;;;;9.70;8.80;;;;;;;23.19;76.95;100454.86;131054;1258;108464;-75
2023/08/17 03:15:39;;;;;;;10.40;9.40;;;;;;;23.15;77.17;100454.29;131011;1251;108667;-75
2023/08/17 03:18:45;;;;;;;10.60;9.50;;;;;;;23.14;77.09;100451.38;131098;1254;108496;-75
2023/08/17 03:21:51;;;;;;;11.80;10.50;;;;;;;23.17;77.18;100455.35;130994;1250;108696;-76
2023/08/17 03:24:58;;;;;;;11.90;10.60;;;;;;;23.22;76.94;100460.00;131032;1251;107572;-75
2023/08/17 03:28:04;;;;;;;11.20;10.10;;;;;;;23.25;76.86;100461.73;131025;1254;106768;-75
2023/08/17 03:31:10;;;;;;;11.60;10.50;;;;;;;23.24;76.74;100466.01;131013;1256;107713;-75
2023/08/17 03:34:17;;;;;;;11.90;10.00;;;;;;;23.25;76.99;100464.35;131011;1256;106667;-76
2023/08/17 03:37:22;;;;;;;10.30;9.30;;;;;;;23.25;76.75;100465.16;130923;1256;106796;-77
2023/08/17 03:40:28;;;;;;;11.00;10.00;;;;;;;23.29;76.70;100472.93;130935;1256;106727;-75
2023/08/17 03:43:34;;;;;;;11.50;10.40;;;;;;;23.32;76.51;100468.77;130979;1255;107129;-75
2023/08/17 03:46:39;;;;;;;12.10;10.70;;;;;;;23.36;76.49;100473.07;130860;1256;107788;-75
2023/08/17 03:49:46;;;;;;;10.30;9.40;;;;;;;23.39;76.45;100472.95;130880;1256;107514;-75
2023/08/17 03:52:52;;;;;;;11.70;9.80;;;;;;;23.37;76.17;100468.20;131045;1252;108032;-75
2023/08/17 03:55:58;;;;;;;10.50;9.40;;;;;;;23.36;76.16;100465.16;131032;1254;107593;-75
2023/08/17 03:59:05;;;;;;;10.00;9.10;;;;;;;23.36;76.22;100470.41;131120;1255;108101;-75
2023/08/17 04:02:11;;;;;;;10.90;9.80;;;;;;;23.41;76.21;100464.67;130888;1256;106943;-75
2023/08/17 04:05:17;;;;;;;10.40;9.40;;;;;;;23.47;76.22;100464.82;131077;1254;107677;-75
2023/08/17 04:08:22;;;;;;;11.90;9.50;;;;;;;23.52;75.91;100465.66;130948;1256;107861;-75
2023/08/17 04:11:28;;;;;;;11.20;10.00;;;;;;;23.51;75.91;100460.23;130987;1255;106883;-76
2023/08/17 04:14:34;;;;;;;11.20;9.90;;;;;;;23.51;75.87;100461.74;130978;1257;107181;-75
2023/08/17 04:17:40;;;;;;;11.30;10.20;;;;;;;23.53;75.90;100463.27;130963;1256;107690;-73
2023/08/17 04:20:51;;;;;;;10.00;9.00;;;;;;;23.55;75.81;100469.52;130767;1257;108214;-77
2023/08/17 04:23:56;;;;;;;;;;;;;;;23.55;75.89;100469.35;130921;1257;107672;-76
2023/08/17 04:27:02;;;;;;;9.90;8.50;;;;;;;23.58;75.85;100472.36;130954;1252;107518;-76
2023/08/17 04:30:14;;;;;;;9.90;9.00;;;;;;;23.60;75.77;100468.52;130841;1256;106914;-79
2023/08/17 04:33:31;;;;;;;9.80;8.80;;;;;;;23.67;75.74;100472.81;130797;1256;108438;-76
2023/08/17 04:36:37;;;;;;;10.50;9.50;;;;;;;23.74;75.56;100472.95;130954;1254;106910;-75
2023/08/17 04:39:44;;;;;;;11.40;9.80;;;;;;;23.79;75.60;100476.91;131066;1256;106611;-75
2023/08/17 04:42:50;;;;;;;10.60;9.70;;;;;;;23.83;75.55;100474.45;131002;1264;106315;-75
2023/08/17 04:45:56;;;;;;;11.30;10.20;;;;;;;23.82;75.44;100475.13;130976;1254;107129;-75
2023/08/17 04:49:02;;;;;;;11.70;10.50;;;;;;;23.84;75.48;100477.20;131034;1254;107141;-75
2023/08/17 04:52:08;;;;;;;9.90;9.00;;;;;;;23.82;75.56;100477.75;131026;1256;107546;-75
2023/08/17 04:55:14;;;;;;;9.80;8.80;;;;;;;23.82;75.56;100487.81;130887;1264;107941;-77
2023/08/17 04:58:22;;;;;;;10.40;9.30;;;;;;;23.84;75.54;100488.89;131047;1256;107594;-76
2023/08/17 05:01:27;;;;;;;10.80;9.60;;;;;;;23.90;75.48;100493.55;130902;1251;107766;-76
2023/08/17 05:04:33;;;;;;;10.50;9.50;;;;;;;23.97;75.22;100492.88;131030;1256;107830;-76
2023/08/17 05:07:39;;;;;;;9.90;9.00;;;;;;;24.04;75.26;100491.63;131126;1254;107184;-75
2023/08/17 05:10:45;;;;;;;11.30;10.10;;;;;;;24.09;75.35;100486.83;131138;1256;107024;-77
2023/08/17 05:13:51;;;;;;;10.90;9.90;;;;;;;24.13;75.45;100490.75;131067;1255;107835;-78
2023/08/17 05:16:57;;;;;;;11.20;9.70;;;;;;;24.23;75.37;100494.40;130955;1257;108133;-76
2023/08/17 05:20:04;;;;;;;9.50;8.60;;;;;;;24.31;75.23;100488.25;131000;1256;108754;-78
2023/08/17 05:23:10;;;;;;;9.40;8.40;;;;;;;24.40;75.05;100485.52;130972;1256;106569;-77
2023/08/17 05:26:17;;;;;;;9.50;8.50;;;;;;;24.49;74.96;100486.27;130984;1256;106592;-77
2023/08/17 05:29:22;;;;;;;9.90;8.90;;;;;;;24.58;74.70;100489.31;130953;1254;107606;-76
2023/08/17 05:32:28;;;;;;;10.10;9.10;;;;;;;24.68;74.41;100489.31;130931;1256;107410;-76
2023/08/17 05:35:35;;;;;;;10.30;9.30;;;;;;;24.79;74.36;100494.60;131011;1255;106830;-76
2023/08/17 05:38:40;;;;;;;10.60;9.60;;;;;;;24.88;74.22;100498.84;131002;1257;108059;-76
2023/08/17 05:41:46;;;;;;;10.30;9.30;;;;;;;24.96;74.12;100507.57;130825;1258;107757;-76
2023/08/17 05:44:51;;;;;;;10.40;9.40;;;;;;;25.05;74.30;100514.84;131008;1256;107957;-76
2023/08/17 05:47:57;;;;;;;9.80;9.00;;;;;;;25.14;74.00;100515.29;130991;1257;108002;-76
2023/08/17 05:51:02;;;;;;;10.10;9.10;;;;;;;25.24;74.04;100515.17;131093;1255;107240;-76
2023/08/17 05:54:08;;;;;;;9.00;8.20;;;;;;;25.29;73.99;100507.96;130962;1251;107355;-78
2023/08/17 05:57:13;;;;;;;8.80;7.90;;;;;;;25.37;73.79;100506.02;130972;1257;107588;-77
2023/08/17 06:00:19;;;;;;;9.90;8.70;;;;;;;25.46;73.57;100508.94;131068;1251;107767;-76
2023/08/17 06:03:25;;;;;;;9.60;8.60;;;;;;;25.53;73.31;100508.72;131033;1257;107790;-77
2023/08/17 06:06:30;;;;;;;9.80;8.80;;;;;;;25.62;73.15;100507.18;130981;1255;106250;-76
2023/08/17 06:09:36;;;;;;;9.60;8.60;;;;;;;25.70;72.78;100509.77;130950;1254;106792;-76
2023/08/17 06:12:42;;;;;;;9.60;8.70;;;;;;;25.76;72.56;100513.56;130994;1256;107783;-77
2023/08/17 06:15:48;;;;;;;9.10;8.20;;;;;;;25.84;72.45;100514.44;131032;1256;106974;-76
2023/08/17 06:18:55;;;;;;;9.40;8.50;;;;;;;25.90;72.11;100510.45;131054;1256;107075;-78
2023/08/17 06:22:00;;;;;;;9.60;8.70;;;;;;;25.94;71.84;100508.84;130984;1264;107772;-76
2023/08/17 06:25:08;;;;;;;9.40;8.50;;;;;;;25.96;71.65;100510.50;130970;1256;107783;-75
2023/08/17 06:28:13;;;;;;;9.40;8.60;;;;;;;25.96;71.75;100508.31;130981;1256;107685;-78
2023/08/17 06:31:19;;;;;;;9.20;8.40;;;;;;;25.97;71.56;100509.38;131181;1251;109050;-79
2023/08/17 06:34:25;;;;;;;9.40;8.60;;;;;;;26.00;71.40;100505.38;131053;1256;106591;-77
2023/08/17 06:37:30;;;;;;;9.50;8.60;;;;;;;26.02;71.32;100504.98;130965;1256;106981;-78
2023/08/17 06:40:36;;;;;;;10.70;8.50;;;;;;;26.03;70.89;100503.29;130948;1264;107737;-78
2023/08/17 06:43:42;;;;;;;10.10;9.10;;;;;;;26.02;70.68;100507.09;131033;1250;107715;-78
2023/08/17 06:46:48;;;;;;;10.30;9.40;;;;;;;26.01;70.46;100510.75;130983;1257;107636;-78
2023/08/17 06:49:53;;;;;;;9.70;8.70;;;;;;;25.98;70.35;100513.67;131041;1257;107504;-78
2023/08/17 06:52:59;;;;;;;9.60;8.50;;;;;;;25.99;70.27;100511.92;130982;1257;107712;-78
2023/08/17 06:56:05;;;;;;;9.30;8.40;;;;;;;26.04;70.14;100506.59;131018;1255;107720;-78
2023/08/17 06:59:12;;;;;;;9.00;8.20;;;;;;;26.12;69.83;100507.91;130983;1264;107662;-78
2023/08/17 07:02:17;;;;;;;9.60;8.70;;;;;;;26.19;69.36;100505.78;131052;1256;106494;-80
2023/08/17 07:05:23;;;;;;;9.60;8.60;;;;;;;26.26;69.35;100508.51;130963;1263;106563;-77
2023/08/17 07:08:29;;;;;;;10.70;8.20;;;;;;;26.34;69.03;100505.33;131025;1256;107740;-77
2023/08/17 07:11:35;;;;;;;9.70;8.70;;;;;;;26.41;68.82;100511.89;130952;1256;107246;-79
2023/08/17 07:14:40;;;;;;;10.00;8.40;;;;;;;26.46;68.65;100516.28;131119;1255;108152;-77
2023/08/17 07:17:46;;;;;;;9.50;8.30;;;;;;;26.52;68.62;100518.40;130970;1256;106868;-80
2023/08/17 07:20:52;;;;;;;9.90;8.20;;;;;;;26.56;68.27;100509.91;131034;1254;106500;-77
2023/08/17 07:23:58;;;;;;;12.00;8.40;;;;;;;26.62;68.17;100513.58;130974;1261;107952;-77
2023/08/17 07:27:03;;;;;;;9.70;8.70;;;;;;;26.69;68.25;100520.40;131119;1251;108432;-76
2023/08/17 07:30:11;;;;;;;10.60;9.00;;;;;;;26.75;68.05;100515.48;131109;1256;106711;-75
2023/08/17 07:33:17;;;;;;;9.70;8.70;;;;;;;26.80;67.76;100521.27;131319;1257;107019;-77
2023/08/17 07:36:23;;;;;;;9.20;8.30;;;;;;;26.87;67.63;100524.63;130975;1256;106739;-78
2023/08/17 07:39:28;;;;;;;11.00;9.90;;;;;;;26.94;67.34;100524.54;131036;1256;106956;-78
2023/08/17 07:42:34;;;;;;;9.30;8.40;;;;;;;27.04;67.13;100524.50;131088;1257;107209;-80
2023/08/17 07:45:40;;;;;;;11.80;9.50;;;;;;;27.20;67.07;100522.00;131205;1255;107752;-79
2023/08/17 07:48:46;;;;;;;10.30;9.30;;;;;;;27.34;66.40;100518.13;131048;1256;106955;-79
2023/08/17 07:51:52;;;;;;;11.70;9.20;;;;;;;27.50;66.56;100526.88;130965;1258;106519;-79
2023/08/17 07:54:58;;;;;;;10.30;9.20;;;;;;;27.65;66.08;100531.36;130978;1264;107541;-79
2023/08/17 07:58:05;;;;;;;10.30;9.20;;;;;;;27.76;65.92;100532.99;130951;1263;106715;-79
2023/08/17 08:01:11;;;;;;;10.70;9.60;;;;;;;27.88;65.82;100537.27;131076;1257;107013;-80
2023/08/17 08:04:17;;;;;;;11.00;9.20;;;;;;;27.97;65.25;100547.19;131057;1256;106725;-81
2023/08/17 08:07:23;;;;;;;12.50;9.00;;;;;;;27.98;65.08;100546.65;131158;1251;107949;-80
2023/08/17 08:10:30;;;;;;;11.90;9.50;;;;;;;28.00;64.95;100546.77;130898;1264;107122;-79
2023/08/17 08:13:37;;;;;;;12.40;9.30;;;;;;;28.00;64.90;100544.63;131005;1256;107756;-79
2023/08/17 08:16:42;;;;;;;11.60;10.40;;;;;;;27.98;64.84;100543.58;131017;1250;106798;-79
2023/08/17 08:19:50;;;;;;;12.80;9.00;;;;;;;28.00;64.72;100542.16;131085;1255;107087;-80
2023/08/17 08:22:56;;;;;;;10.90;9.80;;;;;;;28.06;64.95;100538.70;131012;1254;108504;-79
2023/08/17 08:26:02;;;;;;;11.00;9.70;;;;;;;28.17;64.75;100535.65;130968;1261;108299;-79
2023/08/17 08:29:07;;;;;;;12.70;10.20;;;;;;;28.36;64.57;100535.50;131004;1256;107561;-80
2023/08/17 08:32:13;;;;;;;11.50;10.40;;;;;;;28.57;64.03;100534.23;131140;1264;107911;-80
2023/08/17 08:35:19;;;;;;;12.40;10.60;;;;;;;28.73;63.85;100532.98;131112;1255;107507;-81
2023/08/17 08:38:25;;;;;;;14.10;10.70;;;;;;;28.95;63.45;100530.02;131110;1256;108638;-80
2023/08/17 08:41:32;;;;;;;11.90;10.40;;;;;;;29.17;63.16;100527.80;131159;1256;106772;-80
2023/08/17 08:44:38;;;;;;;11.60;10.50;;;;;;;29.35;62.61;100523.02;131184;1257;107950;-80
2023/08/17 08:47:45;;;;;;;13.30;11.00;;;;;;;29.55;62.41;100524.08;131148;1257;108656;-80
2023/08/17 08:50:55;;;;;;;10.80;9.70;;;;;;;29.59;61.06;100527.50;131152;1264;107775;-80
2023/08/17 08:54:04;;;;;;;12.50;10.80;;;;;;;29.54;61.68;100526.39;131197;1255;107718;-80
2023/08/17 08:57:14;;;;;;;12.60;10.50;;;;;;;29.55;61.81;100526.95;131152;1252;107644;-80
2023/08/17 09:00:21;;;;;;;13.90;11.00;;;;;;;29.58;61.61;100527.23;131137;1260;107682;-78
2023/08/17 09:03:28;;;;;;;11.90;10.20;;;;;;;29.51;61.44;100524.90;131128;1256;106845;-79
2023/08/17 09:06:34;;;;;;;12.50;10.50;;;;;;;29.42;61.23;100526.20;130992;1255;108142;-79
2023/08/17 09:09:40;;;;;;;11.90;10.80;;;;;;;29.35;61.41;100534.55;130996;1255;108079;-78
2023/08/17 09:12:46;;;;;;;13.20;10.60;;;;;;;29.30;61.18;100539.55;130949;1256;109184;-78
2023/08/17 09:15:52;;;;;;;14.20;10.50;;;;;;;29.30;61.22;100536.70;130993;1264;107943;-78
2023/08/17 09:18:58;;;;;;;11.80;10.60;;;;;;;29.35;61.28;100536.48;131068;1254;107659;-78
2023/08/17 09:22:04;;;;;;;12.80;11.30;;;;;;;29.43;60.95;100530.23;131035;1262;107547;-78
2023/08/17 09:25:11;;;;;;;12.70;11.50;;;;;;;29.57;60.77;100528.04;131120;1251;106718;-79
2023/08/17 09:28:18;;;;;;;14.30;11.50;;;;;;;29.82;60.39;100527.05;130887;1254;107515;-79
2023/08/17 09:31:24;;;;;;;14.50;11.50;;;;;;;30.07;60.34;100524.77;131097;1255;107774;-79
2023/08/17 09:34:33;;;;;;;14.90;11.60;;;;;;;30.28;59.70;100526.08;130999;1256;105982;-79
2023/08/17 09:37:38;;;;;;;13.90;11.40;;;;;;;30.43;59.33;100528.77;131024;1260;107512;-79
2023/08/17 09:40:44;;;;;;;13.40;12.00;;;;;;;30.48;59.40;100529.02;130989;1254;107896;-79
2023/08/17 09:43:52;;;;;;;12.40;11.30;;;;;;;30.44;58.44;100527.71;131006;1256;106664;-79
2023/08/17 09:46:59;;;;;;;12.40;11.20;;;;;;;30.33;58.51;100525.96;131053;1257;106739;-78
2023/08/17 09:50:08;;;;;;;12.90;11.70;;;;;;;30.22;58.56;100524.81;131133;1256;108512;-78
2023/08/17 09:53:17;;;;;;;12.10;11.00;;;;;;;30.11;58.41;100514.54;131023;1258;107795;-78
2023/08/17 09:56:27;;;;;;;12.40;11.30;;;;;;;30.03;58.04;100515.42;131021;1256;107064;-78
2023/08/17 09:59:33;;;;;;;11.70;10.60;;;;;;;29.95;58.27;100513.56;130995;1265;107895;-78
2023/08/17 10:02:39;;;;;;;13.10;11.30;;;;;;;29.89;58.27;100515.43;131062;1254;106975;-79
2023/08/17 10:05:46;;;;;;;13.10;11.80;;;;;;;29.86;58.06;100512.98;131074;1251;107707;-79
2023/08/17 10:08:56;;;;;;;11.90;10.70;;;;;;;29.84;57.87;100510.10;131000;1256;106787;-78
2023/08/17 10:12:09;;;;;;;10.60;9.60;;;;;;;29.83;57.58;100510.16;131044;1257;108539;-79
2023/08/17 10:15:19;;;;;;;9.90;9.00;;;;;;;29.85;57.27;100511.25;131029;1261;107694;-79
2023/08/17 10:18:32;;;;;;;10.00;9.10;;;;;;;29.88;56.73;100517.20;130985;1255;108740;-79
2023/08/17 10:21:45;;;;;;;9.90;9.00;;;;;;;29.88;56.37;100519.45;131077;1264;108497;-79
2023/08/17 10:24:51;;;;;;;11.00;9.00;;;;;;;29.89;55.93;100517.26;130964;1254;108562;-79
2023/08/17 10:28:00;;;;;;;9.20;8.30;;;;;;;29.92;56.37;100514.06;131057;1254;106561;-80
2023/08/17 10:31:07;;;;;;;8.80;7.70;;;;;;;29.99;55.93;100513.84;131009;1266;107633;-81
2023/08/17 10:34:13;;;;;;;8.90;7.40;;;;;;;30.00;55.18;100510.73;131217;1254;106833;-80
2023/08/17 10:37:20;;;;;;;7.10;6.40;;;;;;;30.02;54.31;100508.82;131092;1257;106786;-81
2023/08/17 10:40:29;;;;;;;7.60;6.90;;;;;;;30.05;54.11;100502.98;131149;1257;107610;-80
2023/08/17 10:43:36;;;;;;;6.80;6.20;;;;;;;30.09;53.46;100502.21;131137;1256;107317;-80
2023/08/17 10:46:43;;;;;;;8.10;6.60;;;;;;;30.12;53.62;100499.94;131172;1257;107680;-80
2023/08/17 10:49:50;;;;;;;7.70;6.60;;;;;;;30.14;53.37;100494.38;131206;1255;108979;-81
2023/08/17 10:52:56;;;;;;;6.70;6.10;;;;;;;30.20;53.24;100493.88;131180;1254;108732;-80
2023/08/17 10:56:02;;;;;;;8.00;6.60;;;;;;;30.27;53.07;100491.83;131145;1257;106830;-80
2023/08/17 10:59:27;;;;;;;7.10;6.40;;;;;;;30.31;52.78;100492.42;131157;1254;107759;-80
2023/08/17 11:02:35;;;;;;;7.00;6.20;;;;;;;30.39;52.57;100495.67;131176;1255;106743;-80
2023/08/17 11:05:43;;;;;;;9.40;6.50;;;;;;;30.46;52.36;100493.95;131159;1255;107239;-81
2023/08/17 11:08:56;;;;;;;6.80;5.60;;;;;;;30.49;51.63;100494.10;131157;1254;107587;-80
2023/08/17 11:12:05;;;;;;;7.30;6.20;;;;;;;30.51;51.69;100491.17;131160;1254;107866;-80
2023/08/17 11:15:11;;;;;;;7.60;5.60;;;;;;;30.54;51.59;100488.05;131088;1254;107101;-80
2023/08/17 11:18:17;;;;;;;6.40;5.80;;;;;;;30.59;51.33;100486.41;131026;1254;108526;-80
2023/08/17 11:21:23;;;;;;;6.40;5.80;;;;;;;30.65;50.59;100488.38;131028;1256;108523;-80
2023/08/17 11:24:29;;;;;;;7.60;6.10;;;;;;;30.70;50.75;100482.96;131000;1254;108743;-80
2023/08/17 11:27:35;;;;;;;6.70;6.10;;;;;;;30.78;50.58;100484.79;131041;1257;106523;-80
2023/08/17 11:30:42;;;;;;;6.50;5.80;;;;;;;30.90;50.57;100485.13;131466;1254;107696;-81
2023/08/17 11:33:48;;;;;;;6.70;5.30;;;;;;;31.03;50.19;100488.88;131129;1261;108970;-80
2023/08/17 11:37:01;;;;;;;6.30;5.50;;;;;;;31.19;49.98;100486.14;131411;1254;106674;-82
2023/08/17 11:40:09;;;;;;;6.30;5.70;;;;;;;31.37;49.86;100481.89;131393;1257;108575;-79
2023/08/17 11:43:15;;;;;;;7.80;5.80;;;;;;;31.56;49.54;100485.97;131392;1258;108428;-79
2023/08/17 11:46:22;;;;;;;7.60;5.40;;;;;;;31.73;49.27;100484.45;130996;1251;108009;-79
2023/08/17 11:49:31;;;;;;;7.40;5.20;;;;;;;31.85;48.96;100489.40;131109;1251;106594;-79
2023/08/17 11:52:36;;;;;;;6.00;5.40;;;;;;;31.97;48.56;100490.63;131370;1256;107737;-78
2023/08/17 11:55:42;;;;;;;5.50;5.00;;;;;;;32.05;48.75;100484.62;131155;1254;107516;-78
2023/08/17 11:58:48;;;;;;;5.50;4.80;;;;;;;32.14;48.80;100485.52;131161;1254;107740;-79
2023/08/17 12:01:55;;;;;;;5.60;5.10;;;;;;;32.21;48.10;100484.94;131568;1251;108618;-78
2023/08/17 12:05:06;;;;;;;5.30;4.70;;;;;;;32.27;47.46;100481.63;131208;1255;108682;-79
2023/08/17 12:08:10;;;;;;;;;;;;;;;32.32;47.37;100484.01;131094;1256;107922;-78
2023/08/17 12:11:16;;;;;;;5.10;4.00;;;;;;;32.38;46.85;100486.95;131227;1254;107703;-79
2023/08/17 12:14:22;;;;;;;5.20;4.30;;;;;;;32.43;46.52;100488.17;131261;1254;107851;-79
2023/08/17 12:17:28;;;;;;;4.50;4.10;;;;;;;32.43;45.95;100481.84;131041;1251;106847;-78
2023/08/17 12:20:36;;;;;;;4.90;4.10;;;;;;;32.40;45.14;100479.83;131276;1250;107696;-78
2023/08/17 12:23:42;;;;;;;4.60;4.20;;;;;;;32.38;45.44;100477.96;131070;1254;107791;-78
2023/08/17 12:26:48;;;;;;;4.30;3.90;;;;;;;32.39;45.35;100475.58;131047;1254;107825;-79
2023/08/17 12:29:54;;;;;;;5.40;4.40;;;;;;;32.40;45.28;100475.79;130990;1254;106322;-78
2023/08/17 12:33:00;;;;;;;4.80;4.20;;;;;;;32.41;45.08;100475.29;131232;1255;108203;-78
2023/08/17 12:36:06;;;;;;;5.40;4.50;;;;;;;32.40;45.09;100474.46;131143;1256;109104;-78
2023/08/17 12:39:12;;;;;;;4.80;4.00;;;;;;;32.42;44.75;100470.85;130979;1254;109308;-78
2023/08/17 12:42:18;;;;;;;3.90;3.50;;;;;;;32.44;44.54;100472.26;131044;1254;107936;-79
2023/08/17 12:45:23;;;;;;;7.30;4.20;;;;;;;32.45;44.42;100468.27;131055;1251;106624;-79
2023/08/17 12:48:29;;;;;;;5.20;4.20;;;;;;;32.43;44.25;100467.58;131106;1254;107905;-78
2023/08/17 12:51:37;;;;;;;4.70;4.20;;;;;;;32.43;44.30;100468.36;131052;1256;108709;-78
2023/08/17 12:54:43;;;;;;;5.10;4.60;;;;;;;32.45;44.35;100466.01;130962;1254;107598;-79
2023/08/17 12:57:49;;;;;;;4.60;4.20;;;;;;;32.47;43.98;100460.84;131169;1254;107002;-79
2023/08/17 13:00:55;;;;;;;4.90;4.40;;;;;;;32.52;44.09;100458.41;131004;1254;107190;-79
2023/08/17 13:04:00;;;;;;;4.60;4.20;;;;;;;32.58;43.87;100457.93;131010;1255;108755;-79
2023/08/17 13:07:06;;;;;;;5.10;4.70;;;;;;;32.60;43.78;100452.48;131098;1254;107817;-79
2023/08/17 13:10:12;;;;;;;5.50;4.90;;;;;;;32.59;43.84;100445.64;131186;1257;107747;-79
2023/08/17 13:13:17;;;;;;;6.30;4.60;;;;;;;32.56;44.02;100443.58;131034;1253;107169;-80
2023/08/17 13:16:23;;;;;;;6.30;4.40;;;;;;;32.51;43.88;100442.63;131342;1257;107713;-80
2023/08/17 13:19:29;;;;;;;4.60;4.20;;;;;;;32.42;43.89;100445.98;131193;1251;107622;-80
2023/08/17 13:22:36;;;;;;;5.10;4.50;;;;;;;32.37;43.72;100442.29;131098;1254;107762;-80
2023/08/17 13:25:41;;;;;;;4.50;4.10;;;;;;;32.40;43.89;100440.83;131053;1257;109322;-80
2023/08/17 13:28:47;;;;;;;5.20;4.20;;;;;;;32.41;43.68;100437.66;131110;1251;107386;-79
2023/08/17 13:31:52;;;;;;;4.60;4.00;;;;;;;32.38;43.21;100437.04;131117;1264;107037;-80
2023/08/17 13:34:58;;;;;;;4.70;4.20;;;;;;;32.37;42.85;100436.11;131206;1256;107677;-80
2023/08/17 13:38:04;;;;;;;5.10;4.10;;;;;;;32.38;42.78;100431.23;131168;1251;108477;-80
2023/08/17 13:41:10;;;;;;;5.80;3.90;;;;;;;32.34;42.28;100430.17;131101;1254;106628;-80
2023/08/17 13:44:15;;;;;;;4.30;3.90;;;;;;;32.32;42.37;100426.41;131148;1254;107157;-80
2023/08/17 13:47:21;;;;;;;4.10;3.70;;;;;;;32.32;42.16;100424.02;131110;1255;107576;-81
2023/08/17 13:50:27;;;;;;;4.50;4.10;;;;;;;32.31;42.02;100423.15;131311;1256;106831;-81
2023/08/17 13:53:33;;;;;;;5.10;4.40;;;;;;;32.29;41.51;100415.72;131315;1257;107799;-80
2023/08/17 13:56:46;;;;;;;6.10;5.30;;;;;;;32.27;41.84;100413.70;131588;1250;108540;-81
2023/08/17 13:59:54;;;;;;;5.80;4.30;;;;;;;32.23;41.59;100415.91;131268;1251;107385;-80